Time;durP1;ratioP1;P1;durP2;ratioP2;P2;SDS_P1;SDS_P2;PMS_P1;PMS_P2;Temp;Humidity;BMP_temperature;BMP_pressure;BME280_temperature;BME280_humidity;BME280_pressure;Samples;Min_cycle;Max_cycle;Signal;HPM_P1;HPM_P2
2023/02/10 00:01:27;;;;;;;37.60;24.80;;;;;;;-3.42;90.12;97491.41;5061779;28;20028;-72
2023/02/10 00:03:53;;;;;;;34.90;23.45;;;;;;;-3.42;90.63;97502.53;5062920;28;20240;-63
2023/02/10 00:06:21;;;;;;;33.70;24.13;;;;;;;-3.41;90.53;97495.69;5055264;28;20048;-64
2023/02/10 00:08:48;;;;;;;32.70;23.85;;;;;;;-3.47;90.67;97497.41;5068533;28;20029;-67
2023/02/10 00:11:15;;;;;;;30.70;24.27;;;;;;;-3.45;90.72;97500.84;5062299;28;20576;-67
2023/02/10 00:13:41;;;;;;;34.28;24.90;;;;;;;-3.43;90.13;97499.97;5066280;28;20051;-67
2023/02/10 00:16:09;;;;;;;32.55;24.02;;;;;;;-3.48;89.99;97500.88;5061981;28;20488;-67
2023/02/10 00:18:35;;;;;;;37.05;25.45;;;;;;;-3.51;90.47;97492.31;5063019;28;20086;-66
2023/02/10 00:21:13;;;;;;;35.53;24.58;;;;;;;-3.56;90.55;97488.91;5049957;28;20044;-67
2023/02/10 00:23:38;;;;;;;31.50;22.70;;;;;;;-3.61;91.15;97494.13;5058533;28;20033;-67
2023/02/10 00:26:05;;;;;;;32.05;23.05;;;;;;;-3.65;91.30;97487.25;5056401;28;20110;-62
2023/02/10 00:28:32;;;;;;;30.33;24.38;;;;;;;-3.63;91.38;97488.13;5065366;28;20040;-70
2023/02/10 00:30:57;;;;;;;38.13;24.63;;;;;;;-3.64;90.40;97486.41;5059974;28;20406;-70
2023/02/10 00:33:22;;;;;;;33.03;25.15;;;;;;;-3.72;90.55;97476.16;5055773;28;20040;-70
2023/02/10 00:35:48;;;;;;;32.33;24.08;;;;;;;-3.72;92.18;97478.75;5060704;28;20061;-71
2023/02/10 00:38:13;;;;;;;39.58;25.45;;;;;;;-3.74;91.67;97477.91;5068395;28;20036;-70
2023/02/10 00:40:38;;;;;;;35.25;26.08;;;;;;;-3.78;91.93;97479.63;5067085;28;20024;-70
2023/02/10 00:43:04;;;;;;;42.50;27.98;;;;;;;-3.72;90.69;97471.00;5063852;28;20028;-76
2023/02/10 00:45:29;;;;;;;45.15;27.95;;;;;;;-3.75;90.72;97474.44;5066219;28;20075;-66
2023/02/10 00:47:54;;;;;;;43.45;27.65;;;;;;;-3.82;90.85;97472.78;5063626;28;20036;-67
2023/02/10 00:50:20;;;;;;;43.28;29.17;;;;;;;-3.85;91.50;97459.94;5060562;28;20033;-67
2023/02/10 00:52:45;;;;;;;45.95;29.42;;;;;;;-3.80;90.60;97465.91;5061322;28;20617;-67
2023/02/10 00:55:10;;;;;;;48.38;30.95;;;;;;;-3.80;92.16;97472.75;5068605;28;20509;-68
2023/02/10 00:57:36;;;;;;;47.45;30.75;;;;;;;-3.91;92.63;97477.97;5061177;28;20510;-67
2023/02/10 01:00:02;;;;;;;49.35;32.67;;;;;;;-3.92;92.13;97473.69;5067369;28;20091;-67
2023/02/10 01:02:27;;;;;;;46.50;33.80;;;;;;;-3.91;91.91;97478.84;5065450;28;20032;-69
2023/02/10 01:04:52;;;;;;;42.03;31.42;;;;;;;-3.93;91.36;97478.00;5069047;28;20032;-65
2023/02/10 01:07:18;;;;;;;50.78;28.35;;;;;;;-3.97;91.80;97467.72;5058374;28;20033;-65
2023/02/10 01:09:43;;;;;;;39.45;29.08;;;;;;;-4.04;92.36;97477.19;5054460;28;20056;-65
2023/02/10 01:12:09;;;;;;;36.40;25.63;;;;;;;-4.06;92.53;97469.50;5065576;28;20063;-65
2023/02/10 01:14:34;;;;;;;36.72;24.33;;;;;;;-4.09;92.11;97478.94;5059732;28;20039;-65
2023/02/10 01:16:59;;;;;;;34.42;24.45;;;;;;;-4.09;93.39;97479.81;5065809;28;20040;-65
2023/02/10 01:19:25;;;;;;;31.20;23.92;;;;;;;-4.10;91.92;97479.81;5056719;28;20029;-65
2023/02/10 01:21:50;;;;;;;34.95;24.88;;;;;;;-4.15;93.54;97484.13;5065289;28;20567;-63
2023/02/10 01:24:16;;;;;;;26.73;20.05;;;;;;;-4.20;94.10;97481.56;5068392;28;20032;-76
2023/02/10 01:26:41;;;;;;;24.00;18.77;;;;;;;-4.23;93.94;97481.59;5065233;28;20029;-76
2023/02/10 01:29:07;;;;;;;18.52;16.27;;;;;;;-4.24;93.68;97482.44;5063678;28;20532;-75
2023/02/10 01:31:32;;;;;;;22.63;19.35;;;;;;;-4.25;94.75;97489.31;5065539;28;20036;-75
2023/02/10 01:33:58;;;;;;;23.98;19.08;;;;;;;-4.27;94.19;97483.31;5064072;28;20047;-75
2023/02/10 01:36:24;;;;;;;25.50;18.85;;;;;;;-4.27;93.74;97488.47;5064541;28;20029;-75
2023/02/10 01:38:50;;;;;;;26.05;20.30;;;;;;;-4.26;93.93;97489.31;5064316;28;20029;-75
2023/02/10 01:41:19;;;;;;;24.70;19.63;;;;;;;-4.25;93.92;97493.59;5046992;28;20055;-61
2023/02/10 01:44:02;;;;;;;28.33;23.77;;;;;;;-4.22;94.67;97498.72;5064575;28;20041;-73
2023/02/10 01:46:32;;;;;;;29.48;22.88;;;;;;;-4.24;96.20;97490.16;5058924;28;20021;-73
2023/02/10 01:49:04;;;;;;;30.80;22.70;;;;;;;-4.26;95.41;97495.31;5052254;28;20025;-73
2023/02/10 01:51:56;;;;;;;33.97;23.90;;;;;;;-4.30;96.78;97496.19;5062636;28;20088;-73
2023/02/10 01:54:28;;;;;;;31.23;21.95;;;;;;;-4.32;96.61;97498.75;5061621;28;20039;-73
2023/02/10 01:56:53;;;;;;;30.42;21.00;;;;;;;-4.34;96.43;97492.75;5059686;28;20090;-72
2023/02/10 01:59:20;;;;;;;26.55;20.00;;;;;;;-4.34;96.11;97499.63;5065018;28;20052;-72
2023/02/10 02:01:46;;;;;;;31.85;22.20;;;;;;;-4.35;96.26;97492.78;5061377;28;20059;-62
2023/02/10 02:04:12;;;;;;;28.98;22.33;;;;;;;-4.36;95.97;97498.78;5065328;28;20595;-67
2023/02/10 02:06:38;;;;;;;32.00;21.45;;;;;;;-4.38;95.82;97496.22;5070481;28;20081;-66
2023/02/10 02:09:04;;;;;;;32.55;22.27;;;;;;;-4.37;96.07;97492.78;5057956;28;20029;-66
2023/02/10 02:12:02;;;;;;;28.65;20.75;;;;;;;-4.37;95.65;97489.38;5058231;28;20036;-67
2023/02/10 02:15:06;;;;;;;31.92;21.90;;;;;;;-4.38;95.49;97491.06;5063600;28;20032;-67
2023/02/10 02:17:42;;;;;;;36.08;22.17;;;;;;;-4.47;96.47;97483.41;5006560;28;20109;-67
2023/02/10 02:20:55;;;;;;;31.02;22.67;;;;;;;-4.48;96.15;97494.56;5052996;28;20029;-64
2023/02/10 02:23:21;;;;;;;28.30;23.13;;;;;;;-4.49;95.74;97488.53;5040646;28;20036;-65
2023/02/10 02:26:07;;;;;;;29.38;22.85;;;;;;;-4.50;95.31;97493.72;5069771;28;20032;-66
2023/02/10 02:28:56;;;;;;;25.00;21.25;;;;;;;-4.58;97.54;97480.88;5060091;28;20041;-65
2023/02/10 02:31:49;;;;;;;32.83;22.77;;;;;;;-4.58;96.61;97474.88;5057479;28;20098;-66
2023/02/10 02:34:24;;;;;;;33.85;24.83;;;;;;;-4.34;94.31;97473.94;5066579;28;20404;-65
2023/02/10 02:36:57;;;;;;;31.70;23.30;;;;;;;-4.41;96.12;97482.53;5054044;28;20037;-65
2023/02/10 02:39:22;;;;;;;30.88;22.77;;;;;;;-4.47;95.86;97478.25;5051852;28;20020;-62
2023/02/10 02:42:13;;;;;;;28.25;21.63;;;;;;;-4.48;96.64;97476.56;5062436;28;20383;-62
2023/02/10 02:44:39;;;;;;;30.45;22.05;;;;;;;-4.51;96.06;97476.56;5053440;28;20033;-62
2023/02/10 02:47:34;;;;;;;30.30;21.42;;;;;;;-4.52;96.41;97470.56;5059709;28;20021;-61
2023/02/10 02:50:14;;;;;;;34.70;24.20;;;;;;;-4.51;95.69;97471.44;5065168;28;20044;-61
2023/02/10 02:53:07;;;;;;;30.38;22.35;;;;;;;-4.52;95.41;97470.56;5065840;28;20107;-61
2023/02/10 02:56:00;;;;;;;32.38;22.02;;;;;;;-4.53;96.18;97462.84;5055820;28;20438;-61
2023/02/10 02:59:04;;;;;;;33.47;22.15;;;;;;;-4.58;95.82;97459.44;5058354;28;20442;-68
2023/02/10 03:01:42;;;;;;;35.00;22.65;;;;;;;-4.66;96.56;97460.31;5049920;28;20051;-61
2023/02/10 03:04:11;;;;;;;31.25;21.80;;;;;;;-4.69;95.86;97462.91;5054745;28;20568;-61
2023/02/10 03:06:36;;;;;;;30.58;20.73;;;;;;;-4.70;96.23;97445.78;5056354;28;20470;-61
2023/02/10 03:09:02;;;;;;;28.67;21.13;;;;;;;-4.62;95.25;97444.03;5057239;28;20057;-61
2023/02/10 03:11:27;;;;;;;30.95;21.02;;;;;;;-4.63;96.56;97449.19;5056223;28;20112;-61
2023/02/10 03:13:53;;;;;;;26.63;20.20;;;;;;;-4.69;96.22;97457.78;5061956;28;20142;-61
2023/02/10 03:16:18;;;;;;;21.92;19.30;;;;;;;-4.70;96.64;97455.19;5060417;28;20418;-73
2023/02/10 03:18:43;;;;;;;24.25;18.40;;;;;;;-4.73;96.12;97450.94;5048037;28;20041;-63
2023/02/10 03:21:09;;;;;;;20.30;16.02;;;;;;;-4.71;95.43;97454.34;5056989;28;20041;-69
2023/02/10 03:23:34;;;;;;;22.52;16.08;;;;;;;-4.73;95.03;97450.06;5061693;28;20187;-70
2023/02/10 03:26:00;;;;;;;18.55;15.23;;;;;;;-4.76;95.63;97445.78;5045954;28;20040;-69
2023/02/10 03:28:26;;;;;;;21.33;16.45;;;;;;;-4.78;95.54;97453.50;5063482;28;20028;-69
2023/02/10 03:30:52;;;;;;;19.52;16.83;;;;;;;-4.81;95.55;97458.66;5034550;28;20059;-69
2023/02/10 03:33:18;;;;;;;20.90;16.92;;;;;;;-4.81;95.22;97455.22;5056828;28;20056;-69
2023/02/10 03:35:45;;;;;;;19.73;17.38;;;;;;;-4.87;95.31;97453.53;5063843;28;20024;-69
2023/02/10 03:38:11;;;;;;;21.50;17.13;;;;;;;-4.83;94.96;97449.25;5057329;28;20040;-64
2023/02/10 03:40:36;;;;;;;20.25;16.85;;;;;;;-4.86;96.05;97462.09;5056724;28;20166;-63
2023/02/10 03:43:02;;;;;;;26.02;18.75;;;;;;;-4.95;96.13;97461.28;5050592;28;20124;-63
2023/02/10 03:45:28;;;;;;;25.90;19.80;;;;;;;-5.02;97.04;97464.69;5063184;28;20028;-64
2023/02/10 03:47:53;;;;;;;21.65;18.88;;;;;;;-5.02;96.89;97459.56;5065592;28;20033;-63
2023/02/10 03:50:18;;;;;;;24.95;19.20;;;;;;;-5.00;96.52;97464.69;5054948;28;20111;-63
2023/02/10 03:52:44;;;;;;;27.35;19.08;;;;;;;-5.00;97.02;97468.09;5060276;28;20080;-63
2023/02/10 03:55:14;;;;;;;22.63;18.40;;;;;;;-4.91;96.30;97477.53;5054862;28;20037;-62
2023/02/10 03:57:39;;;;;;;21.75;19.35;;;;;;;-4.89;96.49;97471.53;5062680;28;20036;-66
2023/02/10 04:00:05;;;;;;;20.65;18.45;;;;;;;-4.88;96.58;97472.38;5062073;28;20035;-66
2023/02/10 04:02:31;;;;;;;18.70;16.70;;;;;;;-4.91;96.65;97477.53;5057593;28;20033;-66
2023/02/10 04:04:56;;;;;;;19.05;17.05;;;;;;;-4.90;97.91;97481.78;5061002;28;20460;-66
2023/02/10 04:07:21;;;;;;;19.88;17.75;;;;;;;-4.93;98.71;97485.25;5060345;28;20029;-66
2023/02/10 04:09:47;;;;;;;21.92;18.05;;;;;;;-4.91;98.48;97485.22;5065669;28;20079;-66
2023/02/10 04:12:12;;;;;;;19.70;16.67;;;;;;;-4.91;98.51;97480.97;5059485;28;20032;-66
2023/02/10 04:14:37;;;;;;;34.53;22.80;;;;;;;-4.86;97.76;97486.09;5065291;28;20048;-69
2023/02/10 04:17:03;;;;;;;23.85;19.48;;;;;;;-4.83;98.35;97490.34;5060281;28;20135;-67
2023/02/10 04:19:28;;;;;;;24.15;18.90;;;;;;;-4.90;98.27;97490.38;5066705;28;20025;-73
2023/02/10 04:21:54;;;;;;;26.00;19.65;;;;;;;-4.94;98.98;97493.81;5061172;28;20050;-73
2023/02/10 04:24:19;;;;;;;21.17;18.70;;;;;;;-4.93;98.12;97484.38;5066892;28;20107;-73
2023/02/10 04:26:45;;;;;;;21.55;19.20;;;;;;;-4.93;97.64;97489.50;5047012;28;20032;-73
2023/02/10 04:29:10;;;;;;;21.00;18.55;;;;;;;-4.94;98.45;97491.25;5058684;28;20473;-73
2023/02/10 04:31:35;;;;;;;24.77;19.20;;;;;;;-4.99;97.96;97492.94;5065642;28;20036;-73
2023/02/10 04:34:01;;;;;;;20.15;17.17;;;;;;;-5.04;98.34;97492.97;5066051;28;20063;-65
2023/02/10 04:36:26;;;;;;;20.23;16.95;;;;;;;-5.11;98.46;97495.53;5067944;28;20406;-65
2023/02/10 04:38:51;;;;;;;24.27;17.83;;;;;;;-5.20;98.53;97497.25;5064301;28;20025;-66
2023/02/10 04:41:17;;;;;;;21.65;18.15;;;;;;;-5.21;98.90;97490.41;5062375;28;20044;-66
2023/02/10 04:43:42;;;;;;;22.30;18.23;;;;;;;-5.24;98.78;97490.41;5059139;28;20032;-67
2023/02/10 04:46:08;;;;;;;21.10;19.00;;;;;;;-5.24;98.20;97487.84;5060648;28;20567;-67
2023/02/10 04:48:34;;;;;;;19.80;17.73;;;;;;;-5.25;98.77;97482.72;5062516;28;20033;-67
2023/02/10 04:51:00;;;;;;;19.60;17.10;;;;;;;-5.25;97.68;97483.56;5054422;28;20037;-67
2023/02/10 04:53:25;;;;;;;19.70;17.60;;;;;;;-5.28;98.16;97480.16;5055948;28;20083;-64
2023/02/10 04:55:50;;;;;;;22.02;17.17;;;;;;;-5.31;97.60;97483.56;5057689;28;20415;-61
2023/02/10 04:58:16;;;;;;;22.08;17.65;;;;;;;-5.34;98.07;97484.41;5055547;28;20029;-61
2023/02/10 05:00:41;;;;;;;20.05;17.58;;;;;;;-5.38;97.79;97484.44;5054087;28;20033;-62
2023/02/10 05:03:07;;;;;;;20.52;18.25;;;;;;;-5.41;98.00;97489.56;5061056;28;20040;-62
2023/02/10 05:05:32;;;;;;;22.75;18.30;;;;;;;-5.47;97.87;97490.44;5062341;28;20029;-61
2023/02/10 05:07:57;;;;;;;20.40;18.15;;;;;;;-5.50;98.31;97475.88;5053437;28;20027;-61
2023/02/10 05:10:23;;;;;;;23.67;17.67;;;;;;;-5.48;98.16;97483.59;5053337;28;20033;-61
2023/02/10 05:12:49;;;;;;;23.30;19.25;;;;;;;-5.49;97.97;97492.13;5062184;28;20044;-78
2023/02/10 05:15:14;;;;;;;20.08;17.85;;;;;;;-5.48;98.35;97486.16;5063366;28;20545;-69
2023/02/10 05:17:40;;;;;;;18.65;16.65;;;;;;;-5.51;97.95;97492.13;5060011;28;20107;-73
2023/02/10 05:20:06;;;;;;;19.10;17.10;;;;;;;-5.52;97.63;97499.84;5063411;28;20387;-74
2023/02/10 05:22:35;;;;;;;19.25;17.13;;;;;;;-5.61;98.20;97495.56;5064887;28;20029;-75
2023/02/10 05:25:01;;;;;;;21.33;17.73;;;;;;;-5.60;98.30;97497.25;5070753;28;20498;-74
2023/02/10 05:27:26;;;;;;;20.98;17.95;;;;;;;-5.61;97.92;97501.53;5066283;28;20108;-72
2023/02/10 05:29:52;;;;;;;31.50;24.80;;;;;;;-5.62;97.69;97498.97;5064779;28;20040;-73
2023/02/10 05:32:17;;;;;;;23.05;20.10;;;;;;;-5.64;97.66;97492.97;5060611;28;20126;-65
2023/02/10 05:34:43;;;;;;;20.55;17.63;;;;;;;-5.61;97.17;97493.00;5055586;28;20411;-74
2023/02/10 05:37:08;;;;;;;23.38;17.92;;;;;;;-5.66;97.25;97495.53;5060509;28;20831;-74
2023/02/10 05:39:33;;;;;;;23.95;18.08;;;;;;;-5.67;97.87;97500.66;5057890;28;20034;-74
2023/02/10 05:41:59;;;;;;;22.23;17.48;;;;;;;-5.70;97.63;97495.53;5054046;28;20033;-69
2023/02/10 05:44:26;;;;;;;23.20;19.38;;;;;;;-5.66;97.84;97505.81;5061788;28;20040;-70
2023/02/10 05:46:52;;;;;;;22.08;19.60;;;;;;;-5.66;97.95;97508.38;5062989;28;20036;-70
2023/02/10 05:49:18;;;;;;;23.02;19.85;;;;;;;-5.72;97.61;97503.25;5056041;28;20051;-70
2023/02/10 05:51:44;;;;;;;22.67;19.05;;;;;;;-5.77;97.35;97515.19;5055688;28;20070;-61
2023/02/10 05:54:10;;;;;;;23.27;18.80;;;;;;;-5.79;97.27;97512.63;5065532;28;20686;-69
2023/02/10 05:56:35;;;;;;;24.15;19.23;;;;;;;-5.75;97.47;97516.03;5067936;28;20420;-69
2023/02/10 05:59:01;;;;;;;23.25;18.95;;;;;;;-5.71;96.14;97519.47;5065813;28;20020;-70
2023/02/10 06:01:27;;;;;;;25.30;21.10;;;;;;;-5.71;96.44;97527.19;5068637;28;20024;-71
2023/02/10 06:03:53;;;;;;;28.00;22.23;;;;;;;-5.73;96.71;97518.63;5045671;28;20025;-71
2023/02/10 06:06:18;;;;;;;24.90;22.30;;;;;;;-5.72;96.90;97522.91;5069133;28;20080;-70
2023/02/10 06:08:44;;;;;;;25.40;21.67;;;;;;;-5.76;96.94;97524.59;5059438;28;20025;-70
2023/02/10 06:11:09;;;;;;;23.13;20.60;;;;;;;-5.77;97.25;97533.16;5070083;28;20109;-61
2023/02/10 06:13:35;;;;;;;25.40;20.48;;;;;;;-5.81;97.27;97529.75;5065214;28;20036;-66
2023/02/10 06:16:01;;;;;;;26.13;22.15;;;;;;;-5.91;97.10;97523.72;5062738;28;20068;-65
2023/02/10 06:18:27;;;;;;;30.33;22.58;;;;;;;-5.90;97.47;97530.56;5069220;28;20094;-65
2023/02/10 06:20:52;;;;;;;30.70;20.65;;;;;;;-5.98;97.59;97531.41;5061718;28;20036;-65
2023/02/10 06:23:19;;;;;;;24.33;20.02;;;;;;;-5.99;97.34;97533.09;5062878;28;20035;-65
2023/02/10 06:25:44;;;;;;;18.67;16.75;;;;;;;-5.96;97.57;97534.81;5063942;28;20032;-65
2023/02/10 06:28:10;;;;;;;18.13;14.23;;;;;;;-5.96;97.15;97540.81;5065117;28;20419;-65
2023/02/10 06:30:35;;;;;;;22.77;15.35;;;;;;;-5.94;97.37;97540.81;5063647;28;20037;-64
2023/02/10 06:33:01;;;;;;;20.85;15.57;;;;;;;-5.92;97.66;97547.66;5064964;28;20039;-69
2023/02/10 06:35:26;;;;;;;24.08;17.58;;;;;;;-5.90;97.30;97550.22;5066832;28;20505;-69
2023/02/10 06:37:51;;;;;;;19.40;17.35;;;;;;;-5.93;97.14;97545.97;5065646;28;20028;-68
2023/02/10 06:40:17;;;;;;;19.25;17.27;;;;;;;-5.96;97.11;97545.06;5066997;28;20023;-69
2023/02/10 06:42:42;;;;;;;21.65;16.33;;;;;;;-5.95;96.60;97549.34;5064596;28;20032;-69
2023/02/10 06:45:08;;;;;;;21.15;18.00;;;;;;;-5.93;96.94;97556.22;5055069;28;20532;-69
2023/02/10 06:47:34;;;;;;;19.15;17.15;;;;;;;-5.92;96.44;97557.06;5064688;28;20069;-68
2023/02/10 06:50:00;;;;;;;23.15;17.27;;;;;;;-5.97;96.95;97553.63;5064876;28;20028;-68
2023/02/10 06:52:26;;;;;;;22.58;19.67;;;;;;;-5.99;97.88;97551.03;5060663;28;20077;-64
2023/02/10 06:54:52;;;;;;;28.27;21.40;;;;;;;-5.94;97.35;97557.06;5055708;28;20043;-64
2023/02/10 06:57:17;;;;;;;24.70;19.15;;;;;;;-5.94;98.04;97558.75;5059681;28;20060;-64
2023/02/10 06:59:42;;;;;;;24.90;19.33;;;;;;;-5.99;97.55;97557.91;5057559;28;20056;-64
2023/02/10 07:02:10;;;;;;;21.15;18.20;;;;;;;-6.01;97.59;97567.34;5064367;28;20119;-64
2023/02/10 07:04:35;;;;;;;23.83;19.13;;;;;;;-5.98;96.88;97572.44;5059910;28;20040;-63
2023/02/10 07:07:01;;;;;;;30.45;18.63;;;;;;;-5.91;96.96;97569.91;5063828;28;20048;-64
2023/02/10 07:09:26;;;;;;;26.08;17.88;;;;;;;-5.84;96.31;97570.78;5062372;28;20107;-71
2023/02/10 07:11:51;;;;;;;21.80;18.20;;;;;;;-5.81;96.19;97568.22;5069453;28;20036;-64
2023/02/10 07:14:17;;;;;;;22.30;18.35;;;;;;;-5.77;95.55;97566.50;5061404;28;20024;-64
2023/02/10 07:16:42;;;;;;;21.70;18.40;;;;;;;-5.84;95.51;97568.22;5064174;28;20186;-64
2023/02/10 07:19:08;;;;;;;20.17;17.15;;;;;;;-5.79;95.58;97571.66;5062273;28;20029;-64
2023/02/10 07:21:33;;;;;;;22.20;19.33;;;;;;;-5.79;95.75;97574.22;5062050;28;20036;-64
2023/02/10 07:24:00;;;;;;;24.83;18.90;;;;;;;-5.78;96.38;97575.94;5056786;28;20414;-63
2023/02/10 07:26:26;;;;;;;24.55;19.13;;;;;;;-5.78;96.68;97575.06;5059926;28;20092;-67
2023/02/10 07:28:51;;;;;;;25.77;19.73;;;;;;;-5.80;97.50;97580.19;5061812;28;20498;-67
2023/02/10 07:31:17;;;;;;;22.50;18.63;;;;;;;-5.80;97.79;97577.63;5052556;28;20047;-70
2023/02/10 07:33:42;;;;;;;22.60;18.98;;;;;;;-5.80;97.78;97580.19;5051615;28;20036;-71
2023/02/10 07:36:08;;;;;;;21.52;18.40;;;;;;;-5.78;97.87;97578.50;5063341;28;20036;-72
2023/02/10 07:38:34;;;;;;;23.48;18.70;;;;;;;-5.78;97.40;97580.19;5066650;28;20095;-72
2023/02/10 07:40:59;;;;;;;24.13;19.23;;;;;;;-5.76;96.94;97576.78;5053563;28;20156;-71
2023/02/10 07:43:25;;;;;;;27.27;24.30;;;;;;;-5.72;97.63;97585.34;5064896;28;20546;-71
2023/02/10 07:45:50;;;;;;;23.08;20.60;;;;;;;-5.68;97.57;97579.38;5061255;28;20039;-61
2023/02/10 07:48:16;;;;;;;24.48;21.77;;;;;;;-5.64;97.44;97580.22;5062402;28;20025;-64
2023/02/10 07:50:42;;;;;;;30.63;25.88;;;;;;;-5.62;97.32;97586.25;5063390;28;20514;-67
2023/02/10 07:53:07;;;;;;;26.17;23.38;;;;;;;-5.69;98.04;97594.75;5057704;28;20175;-67
2023/02/10 07:55:33;;;;;;;40.88;34.60;;;;;;;-5.71;98.35;97591.34;5064539;28;20127;-67
2023/02/10 07:57:58;;;;;;;45.42;35.65;;;;;;;-5.64;97.43;97593.06;5058497;28;20039;-67
2023/02/10 08:00:24;;;;;;;50.55;40.65;;;;;;;-5.62;97.26;97592.22;5060853;28;20383;-67
2023/02/10 08:02:49;;;;;;;57.15;47.47;;;;;;;-5.59;97.79;97601.66;5064202;28;20123;-67
2023/02/10 08:05:14;;;;;;;73.85;51.83;;;;;;;-5.54;97.13;97599.94;5060669;28;20036;-68
2023/02/10 08:07:40;;;;;;;58.05;47.80;;;;;;;-5.48;97.57;97601.66;5059798;28;20044;-64
2023/02/10 08:10:05;;;;;;;53.35;39.38;;;;;;;-5.41;97.15;97599.97;5060888;28;20035;-76
2023/02/10 08:12:32;;;;;;;54.00;39.72;;;;;;;-5.39;97.19;97599.09;5055929;28;20832;-77
2023/02/10 08:14:57;;;;;;;46.20;36.67;;;;;;;-5.36;97.36;97600.84;5056677;28;20131;-76
2023/02/10 08:17:23;;;;;;;45.55;33.80;;;;;;;-5.34;97.62;97597.41;5060354;28;20115;-69
2023/02/10 08:19:48;;;;;;;42.03;33.08;;;;;;;-5.24;97.47;97593.13;5056269;28;20090;-70
2023/02/10 08:22:13;;;;;;;36.85;30.67;;;;;;;-5.19;97.86;97598.28;5061926;28;20051;-72
2023/02/10 08:24:39;;;;;;;46.25;32.90;;;;;;;-5.17;97.55;97601.72;5067394;28;20028;-70
2023/02/10 08:27:05;;;;;;;41.30;31.88;;;;;;;-5.14;97.47;97598.28;5062673;28;20124;-67
2023/02/10 08:29:31;;;;;;;44.22;32.75;;;;;;;-5.07;96.50;97594.88;5064976;28;20043;-71
2023/02/10 08:31:56;;;;;;;45.42;34.28;;;;;;;-5.04;96.58;97589.72;5063658;28;20032;-72
2023/02/10 08:34:22;;;;;;;43.30;33.65;;;;;;;-5.02;97.39;97598.28;5053692;28;20037;-71
2023/02/10 08:36:48;;;;;;;37.65;30.05;;;;;;;-5.00;97.44;97600.88;5058083;28;20487;-72
2023/02/10 08:39:14;;;;;;;34.63;28.70;;;;;;;-4.94;97.34;97593.16;5064135;28;20028;-72
2023/02/10 08:41:40;;;;;;;34.33;28.77;;;;;;;-4.89;96.67;97591.44;5057058;28;20522;-71
2023/02/10 08:44:06;;;;;;;37.67;27.83;;;;;;;-4.83;96.33;97591.44;5057231;28;20039;-68
2023/02/10 08:46:32;;;;;;;34.83;25.80;;;;;;;-4.67;96.44;97591.41;5067205;28;20151;-64
2023/02/10 08:49:00;;;;;;;27.35;21.23;;;;;;;-4.11;94.94;97588.72;5065985;28;20115;-65
2023/02/10 08:51:26;;;;;;;26.60;22.33;;;;;;;-3.52;94.56;97584.16;5063619;28;20164;-65
2023/02/10 08:53:51;;;;;;;28.00;22.48;;;;;;;-2.90;92.44;97582.88;5068135;28;20033;-65
2023/02/10 08:56:18;;;;;;;24.15;20.80;;;;;;;-2.46;89.96;97581.63;5061842;28;20027;-65
2023/02/10 08:58:45;;;;;;;25.10;19.13;;;;;;;-1.95;86.75;97587.09;5071853;28;20032;-64
2023/02/10 09:01:13;;;;;;;24.58;18.42;;;;;;;-1.54;84.68;97580.56;5064224;28;20063;-67
2023/02/10 09:03:39;;;;;;;19.15;17.08;;;;;;;-1.38;82.42;97590.69;5067910;28;20044;-72
2023/02/10 09:06:05;;;;;;;30.27;24.00;;;;;;;-1.19;82.37;97588.69;5066487;28;20032;-72
2023/02/10 09:08:30;;;;;;;25.58;22.80;;;;;;;-1.07;83.93;97587.63;5054512;28;20395;-73
2023/02/10 09:10:57;;;;;;;29.77;23.58;;;;;;;-1.03;83.35;97589.28;5058236;28;20421;-71
2023/02/10 09:13:23;;;;;;;30.30;19.95;;;;;;;-0.94;83.92;97586.59;5060241;28;20418;-71
2023/02/10 09:15:48;;;;;;;29.75;25.85;;;;;;;-0.90;83.63;97596.00;5065314;28;20064;-71
2023/02/10 09:18:13;;;;;;;23.52;19.67;;;;;;;-0.74;82.22;97598.34;5065227;28;20029;-71
2023/02/10 09:20:39;;;;;;;19.88;17.30;;;;;;;-0.56;80.26;97597.16;5056109;28;20068;-70
2023/02/10 09:23:04;;;;;;;16.83;14.10;;;;;;;-0.36;80.22;97595.97;5056609;28;20033;-69
2023/02/10 09:25:30;;;;;;;15.32;13.68;;;;;;;-0.21;77.97;97597.41;5064090;28;20490;-67
2023/02/10 09:27:57;;;;;;;16.42;14.55;;;;;;;-0.02;76.84;97603.09;5065853;28;20033;-69
2023/02/10 09:30:24;;;;;;;15.18;13.57;;;;;;;0.17;74.78;97601.00;5053541;28;20041;-69
2023/02/10 09:32:50;;;;;;;16.05;11.02;;;;;;;0.43;71.30;97599.63;5040170;28;20130;-69
2023/02/10 09:35:15;;;;;;;14.38;12.82;;;;;;;0.57;68.30;97596.72;5060343;28;20494;-69
2023/02/10 09:37:41;;;;;;;12.27;10.98;;;;;;;0.68;67.94;97596.50;5057326;28;20032;-69
2023/02/10 09:40:06;;;;;;;14.10;11.25;;;;;;;0.97;65.85;97598.44;5057902;28;20184;-68
2023/02/10 09:42:35;;;;;;;16.17;12.27;;;;;;;1.19;61.41;97604.84;5040890;28;20081;-63
2023/02/10 09:45:12;;;;;;;13.05;10.77;;;;;;;1.44;62.20;97599.91;5052516;28;20041;-68
2023/02/10 09:48:02;;;;;;;9.98;8.10;;;;;;;1.85;56.56;97595.38;5055206;28;20032;-68
2023/02/10 09:50:30;;;;;;;12.23;8.70;;;;;;;2.04;55.13;97601.81;5054371;28;20029;-69
2023/02/10 09:53:02;;;;;;;10.75;9.63;;;;;;;2.11;56.10;97605.97;5054716;28;20522;-69
2023/02/10 09:55:32;;;;;;;8.40;7.60;;;;;;;2.21;52.04;97606.53;5053872;28;20508;-69
2023/02/10 09:58:23;;;;;;;9.95;6.68;;;;;;;2.34;47.78;97602.72;5052217;28;20024;-68
2023/02/10 10:00:56;;;;;;;9.77;7.05;;;;;;;2.46;49.84;97600.66;5014245;28;20067;-68
2023/02/10 10:03:33;;;;;;;7.95;7.15;;;;;;;2.98;50.18;97608.63;5033586;28;20276;-71
2023/02/10 10:06:31;;;;;;;9.88;8.88;;;;;;;3.18;48.84;97609.75;5054932;28;20123;-70
2023/02/10 10:09:08;;;;;;;10.52;8.90;;;;;;;3.42;50.63;97611.56;5053474;28;20033;-70
2023/02/10 10:11:38;;;;;;;9.90;8.90;;;;;;;3.47;49.27;97611.41;5051043;28;20079;-70
2023/02/10 10:14:04;;;;;;;8.60;7.40;;;;;;;3.42;49.02;97615.94;5050529;28;20036;-70
2023/02/10 10:16:48;;;;;;;9.73;7.75;;;;;;;3.00;48.48;97614.66;5053119;28;20576;-69
2023/02/10 10:19:13;;;;;;;9.50;7.95;;;;;;;2.98;46.98;97616.44;5053011;28;20112;-70
2023/02/10 10:21:38;;;;;;;12.40;11.00;;;;;;;3.21;48.19;97623.53;5052401;28;20520;-68
2023/02/10 10:24:25;;;;;;;11.25;9.07;;;;;;;3.29;47.22;97626.72;5048761;28;20033;-66
2023/02/10 10:26:50;;;;;;;8.93;7.60;;;;;;;3.41;46.53;97628.09;5053741;28;20492;-63
2023/02/10 10:29:51;;;;;;;12.48;8.48;;;;;;;3.55;45.67;97630.25;5050994;28;20037;-64
2023/02/10 10:32:37;;;;;;;9.93;7.03;;;;;;;3.84;45.18;97624.94;5049312;28;20033;-63
2023/02/10 10:35:03;;;;;;;7.97;6.65;;;;;;;4.00;44.32;97631.34;5056228;28;20033;-63
2023/02/10 10:37:28;;;;;;;7.40;6.57;;;;;;;4.02;44.13;97628.69;5053603;28;20029;-64
2023/02/10 10:39:58;;;;;;;9.48;7.82;;;;;;;4.25;44.06;97629.63;5054249;28;20044;-62
2023/02/10 10:42:48;;;;;;;10.00;8.23;;;;;;;4.34;44.43;97628.47;5051163;28;20029;-70
2023/02/10 10:45:19;;;;;;;8.65;7.75;;;;;;;4.57;43.08;97631.06;5050712;28;20020;-64
2023/02/10 10:47:52;;;;;;;7.53;6.80;;;;;;;4.56;40.55;97624.16;5055950;28;20039;-63
2023/02/10 10:50:21;;;;;;;11.38;10.27;;;;;;;4.55;42.31;97624.19;5051859;28;20047;-63
2023/02/10 10:52:52;;;;;;;9.88;8.80;;;;;;;4.69;43.13;97626.28;5051363;28;20039;-64
2023/02/10 10:55:37;;;;;;;11.60;10.27;;;;;;;4.83;42.25;97621.41;5050936;28;20032;-64
2023/02/10 10:58:11;;;;;;;11.32;8.68;;;;;;;4.78;41.24;97619.88;5047859;28;20036;-65
2023/02/10 11:00:37;;;;;;;9.27;7.80;;;;;;;4.64;40.54;97623.88;5049081;28;20029;-64
2023/02/10 11:03:05;;;;;;;10.02;9.02;;;;;;;4.73;40.52;97620.03;5050477;28;20032;-70
2023/02/10 11:05:37;;;;;;;10.50;8.65;;;;;;;4.80;42.22;97626.75;5050858;28;20037;-71
2023/02/10 11:08:05;;;;;;;10.43;9.23;;;;;;;4.93;42.35;97623.66;5051396;28;20415;-71
2023/02/10 11:10:33;;;;;;;11.95;9.45;;;;;;;5.02;42.81;97621.53;5054178;28;20021;-75
2023/02/10 11:13:01;;;;;;;10.70;9.52;;;;;;;5.24;40.20;97619.84;5065243;28;20036;-72
2023/02/10 11:15:34;;;;;;;12.85;10.15;;;;;;;5.51;41.11;97615.25;5058393;28;20044;-71
2023/02/10 11:18:01;;;;;;;12.13;9.00;;;;;;;5.50;40.25;97610.09;5059902;28;20086;-74
2023/02/10 11:20:28;;;;;;;9.80;8.77;;;;;;;5.71;40.00;97608.34;5044251;28;20021;-67
2023/02/10 11:23:03;;;;;;;9.27;8.02;;;;;;;5.97;40.28;97603.78;5060057;28;20091;-70
2023/02/10 11:25:31;;;;;;;9.25;8.35;;;;;;;6.01;38.29;97608.84;5063246;28;20028;-71